Time;durP1;ratioP1;P1;durP2;ratioP2;P2;SDS_P1;SDS_P2;PMS_P1;PMS_P2;Temp;Humidity;BMP_temperature;BMP_pressure;BME280_temperature;BME280_humidity;BME280_pressure;Samples;Min_cycle;Max_cycle;Signal;HPM_P1;HPM_P2
2023/09/08 00:02:18;;;;;;;8.07;7.23;;;25.20;87.50;;;;;;5022760;28;20537;-74
2023/09/08 00:04:43;;;;;;;8.40;7.30;;;25.20;87.90;;;;;;5024040;28;20617;-74
2023/09/08 00:07:09;;;;;;;17.87;11.10;;;25.20;88.10;;;;;;5025283;28;20195;-74
2023/09/08 00:09:35;;;;;;;17.37;10.87;;;25.20;88.20;;;;;;5022148;28;20262;-74
2023/09/08 00:12:01;;;;;;;9.77;6.83;;;25.10;88.30;;;;;;5026957;28;20644;-74
2023/09/08 00:14:26;;;;;;;10.77;8.80;;;25.10;88.50;;;;;;5021630;28;20247;-73
2023/09/08 00:16:55;;;;;;;8.40;7.50;;;25.10;88.70;;;;;;5026075;28;20741;-74
2023/09/08 00:19:22;;;;;;;8.13;7.33;;;25.10;88.80;;;;;;5021538;28;20193;-74
2023/09/08 00:21:49;;;;;;;7.60;6.43;;;25.00;89.00;;;;;;5027841;28;20959;-74
2023/09/08 00:24:15;;;;;;;7.87;7.17;;;25.00;89.20;;;;;;5027860;28;20418;-74
2023/09/08 00:26:40;;;;;;;9.33;7.20;;;24.90;89.60;;;;;;5022714;28;20435;-74
2023/09/08 00:29:06;;;;;;;8.13;7.27;;;24.90;89.80;;;;;;5019673;28;20207;-74
2023/09/08 00:31:31;;;;;;;6.93;6.33;;;24.90;90.00;;;;;;5027513;28;20681;-74
2023/09/08 00:33:57;;;;;;;7.23;6.57;;;24.80;90.00;;;;;;5032044;28;20656;-74
2023/09/08 00:36:22;;;;;;;8.20;7.17;;;24.80;90.10;;;;;;5030477;28;20180;-74
2023/09/08 00:38:48;;;;;;;8.47;6.70;;;24.70;90.10;;;;;;5020025;28;20304;-74
2023/09/08 00:41:13;;;;;;;7.60;6.90;;;24.70;90.20;;;;;;5026744;28;20204;-73
2023/09/08 00:43:39;;;;;;;9.20;7.07;;;24.70;90.30;;;;;;5028189;28;20195;-74
2023/09/08 00:46:06;;;;;;;9.90;7.20;;;24.60;90.40;;;;;;5028565;28;20271;-74
2023/09/08 00:48:32;;;;;;;8.80;7.90;;;24.60;90.50;;;;;;5026159;28;20652;-73
2023/09/08 00:50:57;;;;;;;8.53;7.00;;;24.60;90.50;;;;;;5030026;28;20423;-74
2023/09/08 00:53:23;;;;;;;8.90;6.77;;;24.60;90.70;;;;;;5028221;28;20284;-74
2023/09/08 00:55:50;;;;;;;7.63;6.90;;;24.60;90.80;;;;;;5027556;28;20180;-74
2023/09/08 00:58:16;;;;;;;7.83;7.03;;;24.50;90.90;;;;;;5026069;28;21011;-74
2023/09/08 01:00:42;;;;;;;9.07;6.60;;;24.50;91.10;;;;;;5031075;28;20415;-74
2023/09/08 01:03:07;;;;;;;7.67;6.97;;;24.50;91.20;;;;;;5028039;28;20451;-74
2023/09/08 01:05:34;;;;;;;9.10;7.80;;;24.40;91.30;;;;;;5029920;28;20184;-73
2023/09/08 01:08:01;;;;;;;10.70;7.23;;;24.40;91.50;;;;;;5016113;28;20212;-74
2023/09/08 01:10:27;;;;;;;7.50;6.80;;;24.40;91.50;;;;;;5029844;28;20426;-73
2023/09/08 01:12:52;;;;;;;8.60;6.50;;;24.30;91.50;;;;;;5025612;28;20431;-74
2023/09/08 01:15:18;;;;;;;8.30;7.37;;;24.30;91.60;;;;;;5027336;28;20430;-74
2023/09/08 01:17:43;;;;;;;10.20;7.10;;;24.20;91.70;;;;;;5026584;28;20177;-74
2023/09/08 01:20:15;;;;;;;8.17;7.37;;;24.20;91.80;;;;;;5025399;28;20287;-74
2023/09/08 01:22:51;;;;;;;8.13;6.27;;;24.20;91.90;;;;;;5024189;28;20200;-73
2023/09/08 01:25:22;;;;;;;10.83;6.77;;;24.10;92.00;;;;;;5026723;28;20426;-74
2023/09/08 01:27:53;;;;;;;8.30;6.57;;;24.10;92.20;;;;;;5030223;28;20455;-74
2023/09/08 01:30:23;;;;;;;13.17;7.00;;;24.00;92.20;;;;;;5024017;28;20411;-74
2023/09/08 01:32:49;;;;;;;7.37;6.60;;;24.00;92.30;;;;;;5042011;28;20494;-74
2023/09/08 01:35:15;;;;;;;6.80;6.20;;;24.00;92.40;;;;;;5030957;28;20423;-73
2023/09/08 01:37:48;;;;;;;8.47;7.23;;;24.00;92.60;;;;;;5025636;28;20493;-73
2023/09/08 01:40:15;;;;;;;11.83;7.00;;;23.90;92.70;;;;;;5024313;28;20275;-73
2023/09/08 01:42:41;;;;;;;6.40;5.80;;;23.90;92.90;;;;;;5027748;28;20840;-73
2023/09/08 01:45:07;;;;;;;7.60;6.87;;;23.90;93.00;;;;;;5020714;28;20536;-74
2023/09/08 01:47:34;;;;;;;7.60;6.80;;;23.90;93.20;;;;;;5025280;28;20469;-73
2023/09/08 01:49:59;;;;;;;8.27;7.47;;;23.80;93.20;;;;;;5023361;28;20459;-73
2023/09/08 01:52:25;;;;;;;8.40;7.57;;;23.80;93.40;;;;;;5024029;28;20930;-73
2023/09/08 01:54:50;;;;;;;8.10;7.37;;;23.80;93.60;;;;;;5022102;28;20184;-73
2023/09/08 01:57:16;;;;;;;8.07;7.27;;;23.80;93.80;;;;;;5030970;28;20192;-73
2023/09/08 01:59:42;;;;;;;7.33;6.63;;;23.70;93.80;;;;;;5026394;28;20219;-73
2023/09/08 02:02:07;;;;;;;9.60;8.10;;;23.70;93.90;;;;;;5002633;28;20304;-73
2023/09/08 02:04:33;;;;;;;7.90;7.10;;;23.70;94.00;;;;;;5018020;28;20192;-73
2023/09/08 02:06:59;;;;;;;7.50;6.80;;;23.60;94.10;;;;;;5028074;28;20223;-73
2023/09/08 02:09:35;;;;;;;8.73;7.93;;;23.60;94.10;;;;;;5023801;28;20212;-73
2023/09/08 02:12:02;;;;;;;7.50;6.80;;;23.60;94.10;;;;;;5023563;28;20459;-73
2023/09/08 02:14:27;;;;;;;8.83;7.93;;;23.50;94.10;;;;;;5040408;28;20418;-73
2023/09/08 02:16:54;;;;;;;9.10;7.67;;;23.50;94.10;;;;;;5048244;28;20423;-73
2023/09/08 02:19:19;;;;;;;8.03;7.20;;;23.40;94.10;;;;;;5049233;28;20185;-73
2023/09/08 02:21:45;;;;;;;8.07;7.30;;;23.40;94.10;;;;;;5052870;28;20474;-73
2023/09/08 02:24:11;;;;;;;8.37;7.57;;;23.40;94.20;;;;;;5055506;28;20195;-73
2023/09/08 02:26:38;;;;;;;7.20;6.50;;;23.30;94.20;;;;;;5055390;28;20223;-73
2023/09/08 02:29:03;;;;;;;9.50;8.07;;;23.30;94.20;;;;;;5045103;28;20205;-74
2023/09/08 02:31:29;;;;;;;8.70;7.80;;;23.20;94.30;;;;;;5045214;28;20482;-73
2023/09/08 02:33:54;;;;;;;8.07;7.37;;;23.10;94.50;;;;;;5032467;28;20676;-74
2023/09/08 02:36:26;;;;;;;8.93;8.00;;;23.10;94.70;;;;;;5032324;28;20233;-74
2023/09/08 02:38:55;;;;;;;7.73;7.03;;;23.00;94.70;;;;;;5027792;28;20619;-74
2023/09/08 02:41:21;;;;;;;8.03;7.10;;;23.00;94.80;;;;;;5013210;28;20441;-74
2023/09/08 02:43:47;;;;;;;7.93;7.13;;;23.00;95.00;;;;;;5027758;28;21055;-74
2023/09/08 02:46:14;;;;;;;10.10;7.83;;;22.90;95.00;;;;;;5023295;28;20439;-74
2023/09/08 02:48:40;;;;;;;8.00;7.03;;;22.80;95.30;;;;;;5024477;28;20208;-74
2023/09/08 02:51:05;;;;;;;10.90;7.80;;;22.80;95.50;;;;;;5023846;28;20443;-73
2023/09/08 02:53:31;;;;;;;8.47;7.67;;;22.80;95.60;;;;;;5027252;28;20447;-74
2023/09/08 02:55:58;;;;;;;9.20;8.30;;;22.70;95.60;;;;;;5025642;28;20638;-73
2023/09/08 02:58:24;;;;;;;8.20;7.40;;;22.70;95.70;;;;;;5019966;28;20203;-73
2023/09/08 03:00:51;;;;;;;8.43;7.57;;;22.70;95.90;;;;;;5021810;28;20483;-73
2023/09/08 03:03:18;;;;;;;8.37;7.33;;;22.70;96.10;;;;;;5018084;28;20455;-74
2023/09/08 03:05:43;;;;;;;10.20;7.47;;;22.60;96.20;;;;;;5011747;28;20455;-73
2023/09/08 03:08:09;;;;;;;8.33;7.00;;;22.60;96.50;;;;;;5019266;28;20509;-73
2023/09/08 03:10:35;;;;;;;8.90;8.00;;;22.50;96.60;;;;;;5026235;28;20191;-74
2023/09/08 03:13:01;;;;;;;8.17;7.33;;;22.50;96.70;;;;;;5029399;28;20201;-73
2023/09/08 03:15:28;;;;;;;9.20;8.40;;;22.50;96.90;;;;;;5015428;28;20797;-74
2023/09/08 03:17:58;;;;;;;7.80;7.00;;;22.50;97.10;;;;;;5024660;28;20172;-74
2023/09/08 03:20:25;;;;;;;8.47;7.67;;;22.50;97.20;;;;;;5014405;28;20433;-74
2023/09/08 03:22:52;;;;;;;9.20;8.30;;;22.40;97.20;;;;;;5020747;28;20482;-74
2023/09/08 03:25:17;;;;;;;8.17;7.47;;;22.40;97.30;;;;;;5024477;28;20435;-74
2023/09/08 03:27:43;;;;;;;8.27;7.53;;;22.50;97.60;;;;;;5007064;28;20561;-74
2023/09/08 03:30:09;;;;;;;8.53;7.70;;;22.40;97.60;;;;;;5021141;28;20427;-74
2023/09/08 03:32:36;;;;;;;12.10;8.20;;;22.40;97.60;;;;;;5027941;28;20208;-74
2023/09/08 03:35:03;;;;;;;8.37;7.57;;;22.40;97.80;;;;;;5028311;28;20445;-74
2023/09/08 03:37:28;;;;;;;7.70;7.00;;;22.40;97.90;;;;;;5027431;28;20423;-74
2023/09/08 03:39:54;;;;;;;8.90;8.00;;;22.40;98.10;;;;;;5018614;28;20462;-74
2023/09/08 03:42:19;;;;;;;8.20;7.40;;;22.40;98.10;;;;;;5023044;28;20304;-74
2023/09/08 03:44:45;;;;;;;8.90;8.00;;;22.30;98.10;;;;;;5021241;28;20180;-74
2023/09/08 03:47:11;;;;;;;8.47;7.40;;;22.30;98.30;;;;;;5023293;28;20685;-74
2023/09/08 03:49:36;;;;;;;10.13;7.90;;;22.30;98.30;;;;;;5023924;28;20291;-74
2023/09/08 03:52:02;;;;;;;8.20;7.40;;;22.30;98.40;;;;;;5028069;28;20211;-74
2023/09/08 03:54:27;;;;;;;10.23;9.23;;;22.20;98.60;;;;;;5027876;28;20191;-74
2023/09/08 03:56:53;;;;;;;9.23;8.13;;;22.20;98.70;;;;;;5025045;28;20198;-74
2023/09/08 03:59:19;;;;;;;10.37;7.20;;;22.20;98.80;;;;;;5020370;28;20193;-74
2023/09/08 04:01:44;;;;;;;8.90;7.80;;;22.10;98.70;;;;;;5027067;28;20208;-74
2023/09/08 04:04:10;;;;;;;8.83;7.93;;;22.10;98.90;;;;;;5024991;28;20203;-74
2023/09/08 04:06:35;;;;;;;12.27;7.67;;;22.00;99.00;;;;;;5030542;28;20196;-74
2023/09/08 04:09:01;;;;;;;9.07;8.17;;;22.00;99.30;;;;;;5027574;28;20216;-74
2023/09/08 04:11:27;;;;;;;7.90;7.10;;;21.90;99.50;;;;;;5025522;28;20886;-74
2023/09/08 04:13:52;;;;;;;8.40;7.50;;;21.90;99.60;;;;;;5026885;28;20286;-73
2023/09/08 04:16:18;;;;;;;8.30;7.50;;;21.90;99.90;;;;;;5028712;28;20216;-74
2023/09/08 04:18:44;;;;;;;8.57;7.77;;;21.80;99.90;;;;;;5029895;28;20211;-74
2023/09/08 04:21:10;;;;;;;9.97;8.77;;;21.90;99.90;;;;;;5026728;28;20917;-73
2023/09/08 04:23:35;;;;;;;9.70;8.40;;;21.80;99.90;;;;;;5017113;28;20259;-73
2023/09/08 04:26:01;;;;;;;9.47;8.47;;;21.70;99.90;;;;;;5041364;28;20188;-74
2023/09/08 04:28:27;;;;;;;10.10;8.70;;;21.70;99.90;;;;;;5023600;28;20674;-74
2023/09/08 04:30:52;;;;;;;9.33;8.43;;;21.70;99.90;;;;;;5024226;28;20274;-73
2023/09/08 04:33:18;;;;;;;9.47;8.57;;;21.60;99.90;;;;;;5025092;28;20206;-73
2023/09/08 04:35:45;;;;;;;9.30;8.40;;;21.60;99.90;;;;;;5028577;28;20180;-73
2023/09/08 04:38:11;;;;;;;10.60;9.47;;;21.60;99.90;;;;;;5028769;28;20188;-73
2023/09/08 04:40:39;;;;;;;10.27;9.17;;;21.40;99.90;;;;;;5026051;28;20531;-73
2023/09/08 04:43:05;;;;;;;8.60;7.80;;;21.40;99.90;;;;;;5043460;28;20537;-74
2023/09/08 04:45:30;;;;;;;8.93;7.43;;;21.40;99.90;;;;;;5044070;28;20518;-73
2023/09/08 04:47:56;;;;;;;11.23;8.33;;;21.50;99.90;;;;;;5027890;28;20204;-73
2023/09/08 04:50:21;;;;;;;9.20;8.30;;;21.50;99.90;;;;;;5028300;28;20215;-74
2023/09/08 04:52:47;;;;;;;9.00;8.07;;;21.50;99.90;;;;;;5026079;28;20212;-74
2023/09/08 04:55:13;;;;;;;9.30;8.10;;;21.50;99.90;;;;;;5025923;28;20177;-74
2023/09/08 04:57:38;;;;;;;9.97;8.97;;;21.40;99.90;;;;;;5027107;28;20180;-74
2023/09/08 05:00:04;;;;;;;9.50;7.90;;;21.40;99.90;;;;;;5027753;28;20181;-74
2023/09/08 05:02:30;;;;;;;9.10;8.20;;;21.40;99.90;;;;;;5024057;28;20232;-73
2023/09/08 05:04:55;;;;;;;12.00;8.40;;;21.40;99.90;;;;;;5025608;28;20447;-74
2023/09/08 05:07:21;;;;;;;9.30;8.30;;;21.40;99.90;;;;;;5027997;28;20268;-74
2023/09/08 05:09:46;;;;;;;10.03;9.03;;;21.40;99.90;;;;;;5021258;28;20212;-74
2023/09/08 05:12:12;;;;;;;10.40;9.40;;;21.40;99.90;;;;;;5024019;28;20649;-74
2023/09/08 05:14:38;;;;;;;10.80;9.10;;;21.40;99.90;;;;;;5027103;28;20188;-74
2023/09/08 05:17:04;;;;;;;11.00;8.77;;;21.40;99.90;;;;;;5026143;28;20219;-74
2023/09/08 05:19:30;;;;;;;12.83;9.13;;;21.30;99.90;;;;;;5030861;28;20208;-74
2023/09/08 05:21:56;;;;;;;8.87;7.97;;;21.40;99.90;;;;;;5023153;28;20519;-73
2023/09/08 05:24:22;;;;;;;10.77;9.70;;;21.40;99.90;;;;;;5022741;28;20188;-74
2023/09/08 05:26:47;;;;;;;8.97;8.07;;;21.40;99.90;;;;;;5024220;28;20784;-73
2023/09/08 05:29:13;;;;;;;9.53;8.50;;;21.40;99.90;;;;;;5026098;28;21252;-73
2023/09/08 05:31:39;;;;;;;11.20;8.70;;;21.40;99.90;;;;;;5030008;28;20205;-73
2023/09/08 05:34:05;;;;;;;10.97;9.20;;;21.40;99.90;;;;;;5027111;28;20192;-73
2023/09/08 05:36:32;;;;;;;10.23;9.23;;;21.40;99.90;;;;;;5027993;28;20186;-73
2023/09/08 05:38:59;;;;;;;11.70;8.63;;;21.40;99.90;;;;;;5024910;28;20184;-73
2023/09/08 05:41:25;;;;;;;12.63;8.70;;;21.40;99.90;;;;;;5026524;28;20419;-74
2023/09/08 05:43:50;;;;;;;11.83;8.80;;;21.40;99.90;;;;;;5025076;28;20569;-73
2023/09/08 05:46:16;;;;;;;10.23;9.00;;;21.40;99.90;;;;;;5027239;28;20199;-73
2023/09/08 05:48:42;;;;;;;10.53;9.30;;;21.50;99.90;;;;;;5013420;28;20584;-73
2023/09/08 05:51:08;;;;;;;9.03;8.13;;;21.50;99.90;;;;;;5027260;28;20424;-73
2023/09/08 05:53:35;;;;;;;13.17;10.00;;;21.50;99.90;;;;;;5025930;28;20207;-74
2023/09/08 05:56:01;;;;;;;11.70;9.20;;;21.40;99.90;;;;;;5025587;28;20185;-74
2023/09/08 05:58:27;;;;;;;10.57;8.87;;;21.40;99.90;;;;;;5034021;28;20422;-73
2023/09/08 06:00:53;;;;;;;10.67;9.57;;;21.40;99.90;;;;;;5019543;28;20428;-73
2023/09/08 06:03:19;;;;;;;10.40;9.30;;;21.40;99.90;;;;;;5026982;28;20283;-73
2023/09/08 06:05:45;;;;;;;9.80;8.80;;;21.50;99.90;;;;;;5023450;28;20506;-73
2023/09/08 06:08:10;;;;;;;12.17;9.87;;;21.50;99.90;;;;;;5025702;28;20204;-73
2023/09/08 06:10:37;;;;;;;11.57;10.00;;;21.60;99.90;;;;;;5032899;28;20312;-73
2023/09/08 06:13:03;;;;;;;10.43;9.33;;;21.60;99.90;;;;;;5028356;28;20606;-73
2023/09/08 06:15:29;;;;;;;10.53;9.13;;;21.60;99.90;;;;;;5025024;28;21139;-73
2023/09/08 06:17:54;;;;;;;17.13;10.40;;;21.60;99.90;;;;;;5023830;28;20592;-73
2023/09/08 06:20:21;;;;;;;11.47;9.40;;;21.60;99.90;;;;;;5023898;28;20224;-74
2023/09/08 06:22:46;;;;;;;12.07;9.53;;;21.70;99.90;;;;;;5029878;28;20203;-73
2023/09/08 06:25:12;;;;;;;10.20;9.20;;;21.70;99.90;;;;;;5023304;28;20462;-73
2023/09/08 06:27:38;;;;;;;10.00;9.00;;;21.70;99.90;;;;;;5025305;28;20189;-73
2023/09/08 06:30:04;;;;;;;10.13;9.07;;;21.70;99.90;;;;;;5025450;28;20529;-73
2023/09/08 06:32:30;;;;;;;16.73;9.40;;;21.80;99.90;;;;;;5023120;28;20720;-73
2023/09/08 06:34:55;;;;;;;11.90;9.80;;;21.80;99.90;;;;;;5012284;28;20435;-73
2023/09/08 06:37:21;;;;;;;11.20;10.10;;;21.80;99.90;;;;;;5030267;28;20192;-73
2023/09/08 06:39:47;;;;;;;14.30;10.80;;;21.90;99.90;;;;;;5019848;28;20196;-73
2023/09/08 06:42:12;;;;;;;10.20;9.20;;;21.90;99.90;;;;;;5027234;28;20278;-73
2023/09/08 06:44:38;;;;;;;11.20;9.67;;;21.90;99.90;;;;;;5024018;28;20435;-73
2023/09/08 06:47:06;;;;;;;10.63;9.53;;;21.90;99.90;;;;;;5030752;28;20188;-73
2023/09/08 06:49:32;;;;;;;11.53;9.33;;;21.90;99.90;;;;;;5039608;28;20866;-73
2023/09/08 06:51:58;;;;;;;11.00;9.77;;;22.00;99.90;;;;;;5030130;28;20500;-73
2023/09/08 06:54:23;;;;;;;11.67;10.50;;;22.00;99.90;;;;;;5023516;28;20184;-73
2023/09/08 06:56:49;;;;;;;12.47;9.50;;;22.00;99.90;;;;;;5027517;28;20199;-74
2023/09/08 06:59:15;;;;;;;12.40;10.10;;;22.10;99.90;;;;;;5030265;28;20185;-74
2023/09/08 07:01:40;;;;;;;10.50;9.50;;;22.10;99.90;;;;;;5040257;28;20200;-74
2023/09/08 07:04:06;;;;;;;9.30;8.37;;;22.20;99.90;;;;;;5059842;28;20188;-74
2023/09/08 07:06:31;;;;;;;11.37;8.50;;;22.20;99.90;;;;;;5050921;28;20192;-74
2023/09/08 07:08:57;;;;;;;10.50;9.40;;;22.20;99.90;;;;;;5048542;28;20224;-74
2023/09/08 07:11:22;;;;;;;9.63;8.60;;;22.20;99.90;;;;;;5054043;28;20180;-74
2023/09/08 07:13:48;;;;;;;14.63;9.20;;;22.30;99.90;;;;;;5048496;28;20283;-74
2023/09/08 07:16:13;;;;;;;10.33;9.23;;;22.30;99.90;;;;;;5052730;28;20207;-74
2023/09/08 07:18:39;;;;;;;11.00;9.90;;;22.30;99.90;;;;;;5035281;28;20180;-74
2023/09/08 07:21:05;;;;;;;12.40;10.00;;;22.40;99.90;;;;;;5037381;28;20227;-74
2023/09/08 07:23:31;;;;;;;13.97;9.10;;;22.40;99.90;;;;;;5031059;28;20208;-74
2023/09/08 07:25:56;;;;;;;11.57;9.73;;;22.40;99.90;;;;;;5027902;28;20184;-74
2023/09/08 07:28:22;;;;;;;10.17;9.00;;;22.40;99.90;;;;;;5026792;28;20274;-74
2023/09/08 07:30:47;;;;;;;11.23;10.13;;;22.50;99.90;;;;;;5028546;28;20642;-74
2023/09/08 07:33:13;;;;;;;16.87;11.23;;;22.50;99.90;;;;;;5025199;28;20204;-74
2023/09/08 07:35:40;;;;;;;14.43;12.93;;;22.50;99.90;;;;;;5029874;28;20216;-73
2023/09/08 07:38:06;;;;;;;11.73;10.53;;;22.50;99.90;;;;;;5032766;28;20680;-73
2023/09/08 07:40:33;;;;;;;11.60;10.40;;;22.60;99.90;;;;;;5021902;28;20441;-73
2023/09/08 07:42:59;;;;;;;11.70;10.50;;;22.60;99.90;;;;;;5025584;28;20455;-73
2023/09/08 07:45:25;;;;;;;15.97;10.97;;;22.70;99.90;;;;;;5032013;28;20418;-73
2023/09/08 07:47:51;;;;;;;18.40;11.00;;;22.70;99.90;;;;;;5025185;28;20224;-73
2023/09/08 07:50:27;;;;;;;12.87;10.97;;;22.80;99.90;;;;;;5030578;28;20477;-73
2023/09/08 07:52:56;;;;;;;12.43;10.53;;;22.80;99.90;;;;;;5029986;28;20231;-73
2023/09/08 07:55:23;;;;;;;12.43;11.10;;;22.90;99.90;;;;;;5029089;28;20445;-74
2023/09/08 07:57:50;;;;;;;13.07;10.87;;;22.90;99.90;;;;;;5033808;28;20419;-74
2023/09/08 08:00:17;;;;;;;12.90;11.10;;;22.90;99.90;;;;;;5027992;28;20492;-73
2023/09/08 08:02:47;;;;;;;17.40;12.27;;;22.90;99.90;;;;;;5024802;28;20439;-73
2023/09/08 08:05:12;;;;;;;14.13;12.63;;;23.00;99.90;;;;;;5029224;28;21154;-74
2023/09/08 08:07:39;;;;;;;14.40;12.93;;;23.20;99.90;;;;;;5021693;28;20432;-74
2023/09/08 08:10:06;;;;;;;19.20;13.30;;;23.20;99.90;;;;;;5025047;28;20700;-74
2023/09/08 08:12:32;;;;;;;15.70;12.70;;;23.30;99.90;;;;;;5024967;28;20590;-74
2023/09/08 08:14:58;;;;;;;18.23;12.93;;;23.20;99.90;;;;;;5031611;28;20617;-74
2023/09/08 08:17:25;;;;;;;14.30;12.80;;;23.20;99.90;;;;;;5029675;28;20237;-74
2023/09/08 08:19:51;;;;;;;15.93;12.80;;;23.20;99.90;;;;;;5029448;28;20422;-74
2023/09/08 08:22:16;;;;;;;13.60;12.10;;;23.20;99.90;;;;;;5023894;28;20467;-74
2023/09/08 08:24:42;;;;;;;15.87;14.27;;;23.20;99.90;;;;;;5033048;28;20193;-74
2023/09/08 08:27:07;;;;;;;13.97;12.57;;;23.30;99.90;;;;;;5027411;28;20187;-74
2023/09/08 08:29:33;;;;;;;13.83;12.53;;;23.40;99.90;;;;;;5025381;28;20211;-74
2023/09/08 08:31:59;;;;;;;14.13;12.60;;;23.40;99.90;;;;;;5025625;28;20211;-74
2023/09/08 08:34:24;;;;;;;13.00;11.80;;;23.30;99.90;;;;;;5027744;28;20172;-74
2023/09/08 08:36:50;;;;;;;16.50;12.30;;;23.40;99.90;;;;;;5026933;28;20185;-74
2023/09/08 08:39:16;;;;;;;16.40;12.80;;;23.50;99.90;;;;;;5026515;28;20300;-73
2023/09/08 08:41:42;;;;;;;16.90;13.40;;;23.50;99.90;;;;;;5026425;28;20450;-73
2023/09/08 08:44:08;;;;;;;20.73;11.83;;;23.50;99.90;;;;;;5034501;28;20237;-74
2023/09/08 08:46:36;;;;;;;12.53;11.43;;;23.50;99.90;;;;;;5024772;28;20220;-74
2023/09/08 08:49:03;;;;;;;13.53;11.70;;;23.60;99.90;;;;;;5026076;28;20870;-74
2023/09/08 08:51:30;;;;;;;15.20;13.73;;;23.70;99.90;;;;;;5012861;28;20505;-73
2023/09/08 08:53:56;;;;;;;14.03;12.53;;;23.70;99.90;;;;;;5013813;28;20904;-73
2023/09/08 08:56:22;;;;;;;14.70;12.27;;;23.70;99.90;;;;;;5026639;28;23068;-73
2023/09/08 08:58:49;;;;;;;15.07;12.43;;;23.80;99.90;;;;;;5022002;28;20526;-73
2023/09/08 09:01:18;;;;;;;16.07;13.80;;;23.90;99.90;;;;;;5024531;28;20740;-73
2023/09/08 09:03:49;;;;;;;13.17;11.87;;;24.00;99.90;;;;;;5027146;28;20439;-73
2023/09/08 09:06:15;;;;;;;14.13;12.73;;;24.10;99.90;;;;;;5015218;28;20469;-74
2023/09/08 09:08:43;;;;;;;14.10;12.50;;;24.30;99.90;;;;;;5025005;28;20475;-74
2023/09/08 09:11:08;;;;;;;12.27;11.07;;;24.30;99.90;;;;;;5011860;28;20436;-74
2023/09/08 09:13:34;;;;;;;14.63;13.13;;;24.30;99.90;;;;;;5027217;28;20878;-73
2023/09/08 09:16:03;;;;;;;11.93;10.83;;;24.30;99.90;;;;;;5026784;28;20233;-74
2023/09/08 09:18:31;;;;;;;15.37;11.60;;;24.30;99.90;;;;;;5024352;28;20241;-73
2023/09/08 09:21:00;;;;;;;14.13;11.50;;;24.40;99.90;;;;;;5024562;28;20440;-74
2023/09/08 09:23:34;;;;;;;11.87;10.77;;;24.50;99.90;;;;;;5010236;28;20486;-74
2023/09/08 09:26:03;;;;;;;12.07;10.60;;;24.60;99.90;;;;;;5029138;28;21285;-73
2023/09/08 09:28:29;;;;;;;12.13;10.90;;;24.60;99.90;;;;;;5022955;28;20471;-74
2023/09/08 09:30:55;;;;;;;14.40;10.87;;;24.50;99.90;;;;;;5024561;28;20581;-74
2023/09/08 09:33:22;;;;;;;13.00;11.80;;;24.60;99.90;;;;;;5008677;28;20459;-73
2023/09/08 09:35:50;;;;;;;12.97;10.10;;;24.70;99.90;;;;;;5026833;28;20484;-74
2023/09/08 09:38:18;;;;;;;12.00;10.90;;;24.80;99.90;;;;;;5022322;28;20446;-73
2023/09/08 09:40:44;;;;;;;12.00;10.90;;;24.80;99.90;;;;;;5022353;28;20443;-73
2023/09/08 09:43:13;;;;;;;12.13;10.17;;;24.80;99.90;;;;;;5024884;28;20857;-73
2023/09/08 09:45:40;;;;;;;11.77;10.60;;;24.90;99.90;;;;;;5029181;28;20421;-73
2023/09/08 09:48:07;;;;;;;12.23;10.93;;;25.00;99.90;;;;;;5018374;28;20566;-75
2023/09/08 09:50:35;;;;;;;10.80;9.80;;;25.00;99.90;;;;;;5024121;28;20438;-74
2023/09/08 09:53:07;;;;;;;10.93;9.83;;;25.00;99.90;;;;;;5023242;28;20446;-73
2023/09/08 09:55:35;;;;;;;15.37;11.70;;;25.10;99.90;;;;;;5023658;28;20411;-73
2023/09/08 09:58:03;;;;;;;13.30;12.00;;;25.20;99.90;;;;;;5025438;28;20451;-73
2023/09/08 10:00:30;;;;;;;11.83;10.83;;;25.20;99.90;;;;;;5021845;28;20844;-73
2023/09/08 10:02:56;;;;;;;12.23;11.13;;;25.20;99.90;;;;;;5026997;28;20465;-73
2023/09/08 10:05:23;;;;;;;10.43;9.53;;;25.20;99.90;;;;;;5026366;28;20427;-73
2023/09/08 10:07:50;;;;;;;12.90;11.50;;;25.20;99.90;;;;;;5026011;28;20443;-73
2023/09/08 10:10:16;;;;;;;12.00;10.90;;;25.30;99.90;;;;;;5025553;28;20445;-73
2023/09/08 10:12:51;;;;;;;11.80;10.60;;;25.50;99.90;;;;;;5023504;28;21088;-73
2023/09/08 10:15:20;;;;;;;13.43;12.13;;;25.60;99.90;;;;;;5024565;28;20505;-73
2023/09/08 10:17:52;;;;;;;13.10;9.83;;;25.60;99.90;;;;;;5022559;28;20486;-73
2023/09/08 10:20:22;;;;;;;11.77;10.60;;;25.70;99.90;;;;;;5026149;28;20998;-73
2023/09/08 10:22:52;;;;;;;16.20;10.40;;;25.70;99.90;;;;;;5022161;28;20493;-73
2023/09/08 10:25:21;;;;;;;11.90;10.07;;;25.80;99.90;;;;;;5028031;28;20522;-73
2023/09/08 10:27:47;;;;;;;10.70;9.60;;;25.90;99.90;;;;;;5025807;28;20427;-73
2023/09/08 10:30:14;;;;;;;11.47;10.37;;;25.90;99.90;;;;;;5023036;28;20543;-73
2023/09/08 10:32:42;;;;;;;10.43;9.43;;;25.90;99.90;;;;;;5014042;28;20996;-73
2023/09/08 10:35:09;;;;;;;11.07;10.07;;;26.00;99.90;;;;;;5023350;28;20573;-73
2023/09/08 10:37:34;;;;;;;11.03;10.00;;;26.00;99.90;;;;;;5025643;28;20411;-73
2023/09/08 10:40:23;;;;;;;11.43;10.00;;;26.10;99.90;;;;;;5023133;28;20840;-73
2023/09/08 10:43:05;;;;;;;11.67;10.37;;;26.10;99.90;;;;;;5030597;28;20731;-73
2023/09/08 10:45:30;;;;;;;10.40;9.50;;;26.20;99.90;;;;;;5037320;28;20447;-73
2023/09/08 10:47:57;;;;;;;11.03;9.80;;;26.30;99.90;;;;;;5032191;28;20473;-73
2023/09/08 10:50:31;;;;;;;11.53;10.40;;;26.40;99.90;;;;;;5026222;28;20180;-73
2023/09/08 10:53:17;;;;;;;11.07;9.97;;;26.60;99.90;;;;;;5022631;28;20545;-73
2023/09/08 10:55:48;;;;;;;11.47;10.27;;;26.60;99.90;;;;;;5021704;28;20896;-73
2023/09/08 10:58:33;;;;;;;10.50;9.50;;;26.60;99.90;;;;;;5030421;28;20414;-73
2023/09/08 11:01:01;;;;;;;10.40;9.47;;;26.80;99.90;;;;;;5023796;28;20933;-73
2023/09/08 11:03:41;;;;;;;12.53;10.17;;;26.80;99.90;;;;;;5022152;28;20979;-73
2023/09/08 11:06:08;;;;;;;10.50;9.50;;;26.90;99.90;;;;;;5025545;28;20454;-73
2023/09/08 11:08:37;;;;;;;12.80;9.63;;;26.80;99.90;;;;;;5013791;28;20512;-73
2023/09/08 11:11:04;;;;;;;11.17;9.80;;;26.90;99.90;;;;;;5025199;28;20870;-73
2023/09/08 11:13:29;;;;;;;10.70;9.57;;;27.00;99.90;;;;;;5024500;28;20527;-73
2023/09/08 11:15:55;;;;;;;11.97;8.90;;;27.10;99.90;;;;;;5025215;28;20419;-73
2023/09/08 11:18:31;;;;;;;10.97;10.03;;;27.20;99.90;;;;;;5025101;28;20271;-73
2023/09/08 11:20:57;;;;;;;9.87;8.97;;;27.30;99.90;;;;;;5023416;28;20422;-73
2023/09/08 11:23:24;;;;;;;9.57;8.67;;;27.30;99.90;;;;;;5025069;28;20474;-73
2023/09/08 11:25:51;;;;;;;10.07;9.17;;;27.40;99.90;;;;;;5027212;28;20929;-73
2023/09/08 11:28:17;;;;;;;10.53;9.53;;;27.50;99.90;;;;;;5022614;28;20700;-73
2023/09/08 11:30:46;;;;;;;8.63;7.93;;;27.60;99.90;;;;;;5028177;28;20453;-73
2023/09/08 11:33:19;;;;;;;10.10;9.10;;;27.60;99.90;;;;;;5026803;28;20498;-73
2023/09/08 11:35:47;;;;;;;11.03;9.90;;;27.70;99.90;;;;;;5024846;28;20406;-73
2023/09/08 11:38:13;;;;;;;12.40;9.07;;;27.80;99.90;;;;;;5023752;28;20514;-73
2023/09/08 11:40:40;;;;;;;10.87;9.00;;;28.00;99.90;;;;;;5024979;28;20435;-73
2023/09/08 11:43:06;;;;;;;14.53;8.97;;;28.10;99.90;;;;;;5023458;28;20493;-73
2023/09/08 11:45:34;;;;;;;9.97;9.00;;;28.10;99.90;;;;;;5012139;28;20466;-73
2023/09/08 11:48:00;;;;;;;9.73;8.83;;;28.30;99.90;;;;;;5025313;28;20542;-73
2023/09/08 11:50:26;;;;;;;9.63;8.90;;;28.40;99.90;;;;;;5023814;28;20512;-74
2023/09/08 11:52:53;;;;;;;10.60;9.70;;;28.40;99.90;;;;;;5023170;28;20854;-74
2023/09/08 11:55:21;;;;;;;10.20;9.20;;;28.60;99.90;;;;;;5037271;28;20181;-74
2023/09/08 11:57:50;;;;;;;9.67;8.77;;;28.80;99.90;;;;;;5028600;28;20440;-74
2023/09/08 12:00:18;;;;;;;10.57;9.47;;;29.00;99.90;;;;;;5036428;28;20423;-71
2023/09/08 12:02:47;;;;;;;10.77;9.73;;;29.40;99.90;;;;;;5033646;28;20446;-72
2023/09/08 12:05:23;;;;;;;11.33;10.27;;;29.90;99.90;;;;;;5031996;28;20430;-73
2023/09/08 12:07:54;;;;;;;9.93;9.10;;;30.30;99.90;;;;;;5016083;28;20450;-74
2023/09/08 12:10:20;;;;;;;11.50;10.50;;;30.60;99.90;;;;;;5033658;28;20427;-74
2023/09/08 12:12:55;;;;;;;10.20;8.53;;;31.00;99.90;;;;;;5031494;28;20834;-74
2023/09/08 12:15:42;;;;;;;10.20;9.23;;;31.40;99.80;;;;;;5032430;28;20415;-75
2023/09/08 12:18:12;;;;;;;10.00;9.00;;;31.70;98.50;;;;;;5015099;28;20438;-73
2023/09/08 12:20:39;;;;;;;9.73;8.93;;;31.90;98.50;;;;;;5028329;28;20884;-73
2023/09/08 12:23:10;;;;;;;9.13;8.30;;;32.20;97.60;;;;;;5027964;28;20441;-73
2023/09/08 12:25:53;;;;;;;9.17;8.37;;;32.40;97.00;;;;;;5031773;28;20417;-74
2023/09/08 12:28:20;;;;;;;9.00;8.13;;;32.70;96.70;;;;;;5022947;28;20432;-74
2023/09/08 12:30:46;;;;;;;9.63;8.70;;;32.80;95.50;;;;;;5027426;28;20491;-73
2023/09/08 12:33:19;;;;;;;9.70;8.53;;;33.00;95.00;;;;;;5027181;28;20489;-73
2023/09/08 12:35:46;;;;;;;12.70;9.20;;;33.30;94.10;;;;;;5025883;28;20718;-74
2023/09/08 12:38:13;;;;;;;9.53;8.63;;;33.50;93.40;;;;;;5026345;28;20541;-73